Robbinston, ME (04671)

6:47 PM EDT on July 30, 2016 (GMT -0400)
River Road | | Change Station

Elev 65 ft 45.08 °N, 67.11 °W | Updated 5 minutes ago

Clear
Clear
79.3 °F
Feels Like 80 °F
N
3.1
Wind Variable Wind from NNW
Gusts 6.2 mph

Today
High -- | Low -- °F
--% Chance of Precip.
Yesterday
High -- | Low -- °F
Precip. -- in
Pressure 30.00 in
Visibility 10.0 miles
Clouds Clear
Heat Index 80 °F
Dew Point 58 °F
Humidity 47%
Rainfall 0.00 in
Snow Depth Not available.
5:12 AM 7:57 PM
Waning Crescent, 10% visible
METAR KBHB 302156Z AUTO 21006KT 10SM CLR 26/16 A2999 RMK AO2 SLP157 T02560161
Pressure 30.00 in
Visibility 10.0 miles
Clouds Clear
Heat Index 80 °F
Dew Point 58 °F
Humidity 47%
Rainfall 0.00 in
Snow Depth Not available.
5:12 AM 7:57 PM
Waning Crescent, 10% visible
METAR KBHB 302156Z AUTO 21006KT 10SM CLR 26/16 A2999 RMK AO2 SLP157 T02560161

10-Day Weather Forecast

Almanac

Astronomy

Jul. 30, 2016 Rise Set
Actual Time
Civil Twilight
Nautical Twilight
Astronomical Twilight
Moon
Length of Visible Light
Length of Day
Tomorrow will be .
, % of the Moon is Illuminated

Today's Extremes

State Highs State Lows

Community

WunderPhotos

Upload Photos

1,928,670 photos uploaded!

WunderBlog® & News

Nearby

Air Quality

  Air Quality AQ Index Pollutant
Not available.

Snow Depth

Station Depth Elevation

Earthquake Activity

City Distance Mag. Time & Date
Minimum magnitude displayed is 2.5.

Coastal Water Temperatures

Place Temperature

Stations

Nearby Weather Stations

Station Location Temp. Windchill Dew Point Humidity Wind Precip. Elev Updated Type
                   

Watches & Warnings

There are currently no watches in effect.